Terminal Aerodrome Forecast
Issued by NWS Buffalo, NY

Home | Current Version | Previous Version | Text Only | Print | Product List | Glossary On
Versions: 1 2 3 4 5 6 7 8 9 10 11 12 13 14 15 16 17 18 19 20 21 22 23 24 25 26 27 28 29 30
574
FTUS41 KBUF 232048 AAB
TAFBUF
TAF AMD
KBUF 232048Z 2321/2418 24012KT P6SM SKC
     FM240200 22006KT P6SM SCT015
     FM240600 VRB03KT P6SM SCT007
     FM241500 23006KT P6SM SKC=

USA.gov is the U.S. government's official web portal to all federal, state and local government web resources and services.